Time;durP1;ratioP1;P1;durP2;ratioP2;P2;SDS_P1;SDS_P2;PMS_P1;PMS_P2;Temp;Humidity;BMP_temperature;BMP_pressure;BME280_temperature;BME280_humidity;BME280_pressure;Samples;Min_cycle;Max_cycle;Signal;HPM_P1;HPM_P2
2023/05/19 00:00:59;;;;;;;9.77;6.40;;;;;;;15.80;72.55;99751.34;4316620;33;33978;-84
2023/05/19 00:03:27;;;;;;;11.07;6.25;;;;;;;15.82;72.36;99749.59;4304423;33;33944;-83
2023/05/19 00:05:56;;;;;;;9.02;5.87;;;;;;;15.57;73.50;99744.31;4316205;33;33877;-84
2023/05/19 00:08:23;;;;;;;10.55;6.12;;;;;;;15.30;73.27;99747.75;4314115;33;33833;-84
2023/05/19 00:10:51;;;;;;;7.10;4.15;;;;;;;15.60;72.10;99743.41;4314429;33;35584;-84
2023/05/19 00:13:20;;;;;;;6.72;3.95;;;;;;;15.38;71.51;99736.41;4316400;33;33491;-84
2023/05/19 00:15:48;;;;;;;8.43;4.68;;;;;;;15.39;70.68;99748.63;4303932;33;34027;-84
2023/05/19 00:18:16;;;;;;;6.55;4.30;;;;;;;15.40;69.44;99735.56;4316255;33;33492;-84
2023/05/19 00:20:43;;;;;;;7.62;4.22;;;;;;;15.41;69.81;99739.03;4302495;33;33573;-85
2023/05/19 00:23:11;;;;;;;7.12;4.40;;;;;;;15.39;69.56;99746.88;4309317;33;33963;-84
2023/05/19 00:25:39;;;;;;;7.03;3.80;;;;;;;15.44;69.23;99733.81;4303564;33;34592;-85
2023/05/19 00:28:06;;;;;;;6.87;3.50;;;;;;;15.24;70.01;99742.47;4317406;33;33695;-84
2023/05/19 00:30:33;;;;;;;7.53;4.07;;;;;;;15.27;69.02;99734.66;4314079;33;34075;-85
2023/05/19 00:33:01;;;;;;;10.75;3.85;;;;;;;15.24;69.35;99733.78;4301855;33;33829;-86
2023/05/19 00:35:29;;;;;;;6.00;3.85;;;;;;;15.36;67.91;99725.97;4302628;33;34819;-83
2023/05/19 00:37:57;;;;;;;6.82;3.42;;;;;;;15.36;68.44;99725.97;4315819;33;34478;-83
2023/05/19 00:40:26;;;;;;;6.15;3.67;;;;;;;15.46;68.71;99730.34;4315387;33;33866;-84
2023/05/19 00:42:53;;;;;;;6.22;3.58;;;;;;;15.43;68.70;99727.72;4302887;33;33806;-85
2023/05/19 00:45:21;;;;;;;9.38;3.80;;;;;;;15.44;68.53;99728.59;4316267;33;34130;-85
2023/05/19 00:47:48;;;;;;;7.37;3.80;;;;;;;15.36;68.45;99725.97;4302700;33;33259;-85
2023/05/19 00:50:16;;;;;;;7.22;3.70;;;;;;;15.44;68.32;99729.47;4315785;33;34203;-84
2023/05/19 00:52:43;;;;;;;8.23;3.85;;;;;;;15.51;67.85;99732.97;4314530;33;35020;-84
2023/05/19 00:55:12;;;;;;;6.62;3.62;;;;;;;15.60;67.75;99727.75;4302781;33;32540;-85
2023/05/19 00:57:40;;;;;;;6.57;3.97;;;;;;;15.80;66.85;99728.69;4293754;33;33449;-84
2023/05/19 01:00:10;;;;;;;7.32;4.10;;;;;;;15.46;67.87;99727.75;4301678;33;33899;-83
2023/05/19 01:02:38;;;;;;;7.18;3.95;;;;;;;15.29;68.50;99730.28;4302907;33;33831;-85
2023/05/19 01:05:07;;;;;;;10.02;4.20;;;;;;;15.33;68.57;99731.19;4303767;33;34061;-84
2023/05/19 01:07:35;;;;;;;5.68;3.60;;;;;;;15.26;68.52;99725.06;4301049;33;34115;-83
2023/05/19 01:10:03;;;;;;;6.87;4.05;;;;;;;15.21;68.60;99732.03;4303464;33;34164;-83
2023/05/19 01:12:31;;;;;;;5.65;3.87;;;;;;;15.20;69.04;99732.03;4315886;33;34789;-86
2023/05/19 01:14:58;;;;;;;7.43;4.15;;;;;;;15.25;68.88;99728.53;4302707;33;33212;-85
2023/05/19 01:17:53;;;;;;;7.15;3.62;;;;;;;15.28;68.74;99730.31;4302945;33;33545;-83
2023/05/19 01:20:31;;;;;;;10.55;3.87;;;;;;;15.33;68.65;99729.44;4315595;33;34354;-84
2023/05/19 01:23:13;;;;;;;8.07;4.22;;;;;;;15.37;68.46;99727.69;4302456;33;35443;-84
2023/05/19 01:26:09;;;;;;;7.90;4.37;;;;;;;15.23;68.87;99735.53;4314958;33;34313;-85
2023/05/19 01:28:43;;;;;;;6.12;4.03;;;;;;;15.03;70.00;99742.41;4302541;33;33374;-84
2023/05/19 01:31:10;;;;;;;7.30;4.25;;;;;;;15.31;68.78;99739.03;4315581;33;33643;-85
2023/05/19 01:33:40;;;;;;;7.32;3.87;;;;;;;15.18;69.05;99733.75;4315181;33;34671;-83
2023/05/19 01:36:09;;;;;;;10.00;4.15;;;;;;;15.22;68.77;99740.72;4301861;33;33303;-83
2023/05/19 01:38:37;;;;;;;11.30;4.07;;;;;;;15.21;68.89;99739.00;4303676;33;33553;-86
2023/05/19 01:41:05;;;;;;;7.90;4.03;;;;;;;15.19;68.40;99730.25;4290762;33;33811;-84
2023/05/19 01:43:34;;;;;;;6.22;4.00;;;;;;;15.14;68.63;99732.00;4301485;33;34286;-85
2023/05/19 01:46:02;;;;;;;7.25;4.05;;;;;;;15.07;68.78;99731.09;4302352;33;33658;-84
2023/05/19 01:48:30;;;;;;;8.10;3.87;;;;;;;15.23;68.27;99726.81;4314926;33;34618;-83
2023/05/19 01:50:58;;;;;;;6.45;3.97;;;;;;;15.22;68.46;99727.66;4302368;33;33745;-84
2023/05/19 01:53:25;;;;;;;7.85;4.37;;;;;;;15.24;68.13;99736.38;4301567;33;34189;-85
2023/05/19 01:55:55;;;;;;;7.12;4.03;;;;;;;15.17;68.43;99730.28;4302015;33;33614;-84
2023/05/19 01:58:31;;;;;;;7.97;4.20;;;;;;;15.18;68.40;99732.00;4302874;33;33379;-85
2023/05/19 02:01:08;;;;;;;6.43;4.03;;;;;;;15.09;68.32;99727.63;4301941;33;34788;-84
2023/05/19 02:04:00;;;;;;;8.13;3.83;;;;;;;15.12;68.48;99732.00;4314922;33;34140;-84
2023/05/19 02:06:41;;;;;;;9.65;3.80;;;;;;;15.41;67.36;99728.59;4314657;33;34170;-84
2023/05/19 02:09:31;;;;;;;8.52;4.25;;;;;;;14.97;68.33;99732.81;4291310;33;33986;-85
2023/05/19 02:12:10;;;;;;;9.05;4.75;;;;;;;15.14;68.18;99732.88;4297431;33;34606;-82
2023/05/19 02:14:41;;;;;;;8.02;4.40;;;;;;;15.40;67.30;99724.22;4314263;33;33651;-85
2023/05/19 02:17:09;;;;;;;8.27;4.40;;;;;;;15.01;68.34;99729.34;4302489;33;34210;-84
2023/05/19 02:19:38;;;;;;;8.93;4.75;;;;;;;15.09;68.27;99726.75;4290062;33;34238;-84
2023/05/19 02:22:07;;;;;;;8.45;4.05;;;;;;;15.04;68.52;99728.50;4291416;33;33523;-83
2023/05/19 02:24:36;;;;;;;7.45;4.82;;;;;;;14.88;69.01;99742.34;4301997;33;32450;-85
2023/05/19 02:27:04;;;;;;;7.25;4.50;;;;;;;15.06;68.54;99730.22;4301814;33;34025;-83
2023/05/19 02:29:33;;;;;;;7.20;4.60;;;;;;;14.96;68.83;99725.81;4315240;33;33656;-83
2023/05/19 02:32:01;;;;;;;7.50;4.78;;;;;;;15.07;68.59;99724.13;4301115;33;34091;-84
2023/05/19 02:34:28;;;;;;;7.57;4.72;;;;;;;15.22;67.88;99723.31;4313809;33;35146;-83
2023/05/19 02:36:56;;;;;;;9.02;4.87;;;;;;;15.33;67.43;99716.38;4301652;33;34069;-84
2023/05/19 02:39:25;;;;;;;15.02;5.05;;;;;;;15.46;66.80;99722.50;4315461;33;33819;-83
2023/05/19 02:41:52;;;;;;;7.78;4.82;;;;;;;15.07;67.88;99718.91;4311777;33;33929;-85
2023/05/19 02:44:20;;;;;;;9.18;4.75;;;;;;;15.13;67.80;99719.81;4314369;33;35001;-85
2023/05/19 02:46:47;;;;;;;8.98;4.80;;;;;;;14.92;68.50;99723.19;4315239;33;34117;-85
2023/05/19 02:49:15;;;;;;;7.20;4.90;;;;;;;15.08;68.10;99720.66;4315939;33;33973;-84
2023/05/19 02:51:43;;;;;;;8.32;4.93;;;;;;;15.22;67.35;99722.44;4288748;33;34034;-85
2023/05/19 02:54:10;;;;;;;9.15;5.53;;;;;;;14.79;68.70;99727.50;4300115;33;34359;-85
2023/05/19 02:56:38;;;;;;;9.13;5.65;;;;;;;14.88;68.59;99724.06;4301166;33;34488;-85
2023/05/19 02:59:05;;;;;;;9.20;5.22;;;;;;;15.05;68.01;99720.66;4300908;33;33194;-83
2023/05/19 03:01:33;;;;;;;8.55;5.37;;;;;;;15.34;67.15;99714.62;4300449;33;34848;-84
2023/05/19 03:04:00;;;;;;;8.18;6.07;;;;;;;15.06;68.00;99727.63;4313886;33;34067;-85
2023/05/19 03:06:31;;;;;;;7.65;5.45;;;;;;;15.04;68.24;99726.75;4290074;33;33950;-84
2023/05/19 03:08:59;;;;;;;9.48;5.45;;;;;;;15.00;68.15;99732.84;4313129;33;34466;-84
2023/05/19 03:11:26;;;;;;;7.57;5.20;;;;;;;14.92;68.41;99734.50;4301041;33;33421;-85
2023/05/19 03:13:54;;;;;;;9.15;6.37;;;;;;;14.96;68.24;99736.28;4314508;33;34060;-84
2023/05/19 03:16:21;;;;;;;11.80;7.10;;;;;;;14.82;68.73;99748.41;4314015;33;33754;-85
2023/05/19 03:18:49;;;;;;;12.23;6.95;;;;;;;14.73;69.03;99751.81;4301025;33;32984;-84
2023/05/19 03:21:17;;;;;;;10.88;6.87;;;;;;;14.75;69.10;99746.62;4313648;33;33718;-85
2023/05/19 03:23:45;;;;;;;9.63;6.60;;;;;;;15.01;68.48;99742.41;4314378;33;34187;-85
2023/05/19 03:26:13;;;;;;;10.00;6.05;;;;;;;15.19;67.92;99740.72;4289580;33;33555;-84
2023/05/19 03:28:41;;;;;;;11.25;6.32;;;;;;;15.21;67.63;99741.59;4314593;33;35016;-84
2023/05/19 03:31:08;;;;;;;10.35;5.97;;;;;;;15.09;67.95;99737.22;4313852;33;33730;-85
2023/05/19 03:33:36;;;;;;;9.30;5.80;;;;;;;15.18;67.76;99738.97;4302197;33;33406;-83
2023/05/19 03:36:05;;;;;;;10.55;5.37;;;;;;;15.26;67.48;99743.34;4313805;33;33740;-85
2023/05/19 03:38:32;;;;;;;12.02;5.87;;;;;;;15.07;68.02;99742.41;4319529;33;33556;-85
2023/05/19 03:41:00;;;;;;;9.63;5.55;;;;;;;15.06;68.50;99747.63;4316368;33;34032;-83
2023/05/19 03:43:28;;;;;;;7.82;5.55;;;;;;;15.26;67.68;99737.25;4314358;33;33761;-84
2023/05/19 03:45:55;;;;;;;9.75;4.80;;;;;;;15.05;68.34;99744.16;4300318;33;34060;-84
2023/05/19 03:48:25;;;;;;;10.38;6.43;;;;;;;15.04;68.74;99738.94;4312954;33;34307;-82
2023/05/19 03:51:03;;;;;;;10.23;6.43;;;;;;;15.07;68.69;99734.56;4313460;33;32898;-84
2023/05/19 03:53:30;;;;;;;7.55;5.32;;;;;;;15.06;68.71;99740.66;4313672;33;35064;-85
2023/05/19 03:55:59;;;;;;;11.20;6.00;;;;;;;15.08;68.68;99731.12;4292532;33;33394;-84
2023/05/19 03:58:29;;;;;;;8.82;5.70;;;;;;;15.22;68.52;99740.72;4316313;33;33244;-85
2023/05/19 04:00:56;;;;;;;7.68;5.68;;;;;;;15.35;68.10;99739.03;4314977;33;33962;-85
2023/05/19 04:03:27;;;;;;;11.60;6.10;;;;;;;15.30;68.14;99739.00;4316327;33;34310;-85
2023/05/19 04:05:54;;;;;;;10.20;6.05;;;;;;;15.28;68.35;99739.00;4289500;33;33076;-82
2023/05/19 04:08:22;;;;;;;7.80;5.40;;;;;;;15.20;68.58;99745.94;4315321;33;33516;-84
2023/05/19 04:10:50;;;;;;;9.50;5.78;;;;;;;15.23;68.79;99743.34;4316942;33;33560;-83
2023/05/19 04:13:17;;;;;;;14.10;6.25;;;;;;;15.38;68.62;99744.25;4315619;33;35338;-86
2023/05/19 04:15:45;;;;;;;11.98;6.25;;;;;;;15.33;68.83;99746.84;4315594;33;34334;-83
2023/05/19 04:18:13;;;;;;;11.60;7.45;;;;;;;15.08;69.90;99753.75;4314370;33;34500;-83
2023/05/19 04:20:41;;;;;;;9.70;6.90;;;;;;;15.28;69.65;99751.19;4315669;33;34019;-84
2023/05/19 04:23:08;;;;;;;9.63;7.32;;;;;;;15.31;69.74;99749.47;4303332;33;34084;-84
2023/05/19 04:25:37;;;;;;;9.77;6.55;;;;;;;15.47;69.61;99759.97;4292057;33;34237;-85
2023/05/19 04:28:04;;;;;;;9.32;6.65;;;;;;;15.53;69.70;99765.19;4303727;33;33839;-85
2023/05/19 04:30:33;;;;;;;13.18;6.90;;;;;;;15.67;69.56;99760.91;4317181;33;34785;-84
2023/05/19 04:33:03;;;;;;;9.10;6.55;;;;;;;15.58;70.14;99769.56;4304248;33;34966;-85
2023/05/19 04:35:31;;;;;;;10.90;7.35;;;;;;;15.78;69.66;99764.41;4316215;33;33962;-83
2023/05/19 04:38:00;;;;;;;12.55;7.22;;;;;;;15.77;69.53;99764.41;4316482;33;33363;-85
2023/05/19 04:40:29;;;;;;;11.40;7.03;;;;;;;15.75;70.12;99761.78;4317560;33;33972;-85
2023/05/19 04:43:00;;;;;;;10.77;6.62;;;;;;;16.07;69.32;99776.62;4303210;33;34325;-85
2023/05/19 04:45:29;;;;;;;9.93;6.97;;;;;;;16.30;68.97;99779.25;4311304;33;34385;-85
2023/05/19 04:47:56;;;;;;;10.30;7.28;;;;;;;16.23;68.82;99774.88;4314079;33;33886;-86
2023/05/19 04:50:25;;;;;;;11.57;6.65;;;;;;;16.10;69.35;99778.34;4317474;33;33749;-84
2023/05/19 04:52:52;;;;;;;10.73;7.03;;;;;;;16.37;68.88;99773.13;4289564;33;33324;-84
2023/05/19 04:55:20;;;;;;;10.75;7.30;;;;;;;16.57;68.05;99780.09;4317495;33;33554;-85
2023/05/19 04:57:48;;;;;;;11.45;8.15;;;;;;;16.42;68.39;99776.59;4301841;33;33229;-84
2023/05/19 05:00:17;;;;;;;9.90;7.28;;;;;;;15.89;68.99;99779.25;4292247;33;33883;-86
2023/05/19 05:02:45;;;;;;;9.82;6.45;;;;;;;15.99;69.26;99774.03;4303910;33;34058;-85
2023/05/19 05:05:16;;;;;;;11.55;6.80;;;;;;;16.46;67.52;99772.25;4303369;33;34869;-85
2023/05/19 05:07:44;;;;;;;14.38;7.25;;;;;;;16.41;67.40;99777.50;4316480;33;33034;-85
2023/05/19 05:10:12;;;;;;;13.27;8.20;;;;;;;16.52;67.07;99775.72;4303816;33;33502;-84
2023/05/19 05:12:40;;;;;;;11.12;6.90;;;;;;;16.43;67.66;99783.59;4317565;33;34107;-86
2023/05/19 05:15:09;;;;;;;11.23;5.87;;;;;;;16.85;67.10;99776.53;4317326;33;33595;-87
2023/05/19 05:17:36;;;;;;;12.25;6.55;;;;;;;16.87;66.25;99785.28;4317298;33;33309;-86
2023/05/19 05:20:05;;;;;;;11.05;6.57;;;;;;;16.50;67.28;99787.94;4303144;33;32828;-86
2023/05/19 05:22:33;;;;;;;8.98;5.80;;;;;;;16.66;67.12;99795.75;4303881;33;33818;-86
2023/05/19 05:25:02;;;;;;;11.43;5.87;;;;;;;16.78;66.96;99801.91;4317115;33;34086;-86
2023/05/19 05:27:31;;;;;;;9.25;6.50;;;;;;;16.50;66.52;99790.56;4303517;33;34426;-86
2023/05/19 05:29:59;;;;;;;9.43;6.30;;;;;;;16.34;67.13;99790.59;4317008;33;33937;-85
2023/05/19 05:32:27;;;;;;;8.88;5.60;;;;;;;16.38;67.56;99793.19;4317020;33;33933;-86
2023/05/19 05:34:55;;;;;;;12.20;7.00;;;;;;;16.58;66.81;99797.53;4304575;33;34046;-86
2023/05/19 05:37:24;;;;;;;9.77;6.12;;;;;;;16.78;66.76;99787.91;4317851;33;34634;-86
2023/05/19 05:39:54;;;;;;;10.43;6.45;;;;;;;16.64;68.19;99795.78;4316463;33;34805;-86
2023/05/19 05:42:22;;;;;;;9.73;6.78;;;;;;;16.95;65.65;99794.00;4317295;33;34275;-85
2023/05/19 05:44:53;;;;;;;14.68;6.57;;;;;;;16.04;68.50;99797.56;4317381;33;34976;-85
2023/05/19 05:47:21;;;;;;;11.48;6.62;;;;;;;16.50;67.71;99795.78;4317569;33;33562;-85
2023/05/19 05:49:48;;;;;;;10.50;6.70;;;;;;;16.62;67.73;99796.66;4317328;33;34837;-86
2023/05/19 05:52:20;;;;;;;10.13;6.20;;;;;;;16.52;68.64;99799.28;4317261;33;33990;-86
2023/05/19 05:54:48;;;;;;;12.50;6.65;;;;;;;16.84;68.55;99803.63;4304650;33;32357;-87
2023/05/19 05:57:17;;;;;;;11.77;6.35;;;;;;;16.74;67.75;99799.28;4317507;33;33634;-88
2023/05/19 05:59:45;;;;;;;10.63;5.50;;;;;;;16.94;67.23;99794.87;4293763;33;32915;-86
2023/05/19 06:02:14;;;;;;;8.20;5.20;;;;;;;17.48;65.23;99797.25;4304324;33;34051;-87
2023/05/19 06:04:42;;;;;;;8.00;5.85;;;;;;;17.66;64.70;99801.53;4304138;33;34752;-87
2023/05/19 06:07:10;;;;;;;8.98;6.20;;;;;;;17.07;65.00;99803.56;4317328;33;33810;-83
2023/05/19 06:09:38;;;;;;;11.43;6.47;;;;;;;16.69;65.68;99806.25;4292313;33;34024;-86
2023/05/19 06:12:06;;;;;;;8.07;5.78;;;;;;;16.56;66.49;99804.53;4317306;33;34208;-86
2023/05/19 06:14:34;;;;;;;9.13;5.87;;;;;;;17.06;64.75;99811.44;4317371;33;33202;-85
2023/05/19 06:17:03;;;;;;;9.38;6.68;;;;;;;17.06;65.83;99811.44;4302832;33;34444;-85
2023/05/19 06:19:33;;;;;;;8.25;5.93;;;;;;;17.34;64.66;99806.94;4316369;33;34726;-82
2023/05/19 06:22:01;;;;;;;7.90;5.57;;;;;;;17.40;64.28;99809.53;4316862;33;35112;-83
2023/05/19 06:24:29;;;;;;;11.95;6.10;;;;;;;17.08;64.58;99813.13;4317377;33;34771;-86
2023/05/19 06:26:57;;;;;;;9.45;6.47;;;;;;;17.61;64.20;99804.16;4316810;33;33518;-85
2023/05/19 06:29:27;;;;;;;9.35;5.78;;;;;;;17.98;63.11;99812.72;4317067;33;34060;-86
2023/05/19 06:31:55;;;;;;;10.95;5.93;;;;;;;18.30;60.86;99808.13;4317011;33;33902;-85
2023/05/19 06:34:24;;;;;;;7.93;5.60;;;;;;;18.64;60.87;99811.31;4316992;33;34683;-81
2023/05/19 06:36:52;;;;;;;7.93;5.37;;;;;;;18.94;60.16;99816.28;4316836;33;33623;-81
2023/05/19 06:39:20;;;;;;;8.95;5.12;;;;;;;18.78;60.49;99816.44;4316658;33;33840;-85
2023/05/19 06:41:49;;;;;;;8.80;5.53;;;;;;;18.96;61.13;99822.38;4291379;33;33573;-85
2023/05/19 06:44:22;;;;;;;7.78;5.62;;;;;;;18.59;60.49;99823.59;4304479;33;33954;-84
2023/05/19 06:46:50;;;;;;;7.55;4.47;;;;;;;18.55;59.57;99821.88;4317098;33;33324;-85
2023/05/19 06:49:19;;;;;;;10.80;5.10;;;;;;;18.80;59.52;99830.44;4316903;33;33795;-84
2023/05/19 06:51:48;;;;;;;7.62;5.32;;;;;;;19.32;58.21;99833.37;4302548;33;35093;-84
2023/05/19 06:54:15;;;;;;;10.25;5.12;;;;;;;19.07;58.87;99838.03;4301307;33;33305;-84
2023/05/19 06:56:43;;;;;;;8.75;5.12;;;;;;;19.44;57.33;99834.97;4302340;33;32852;-85
2023/05/19 06:59:11;;;;;;;6.68;4.80;;;;;;;18.84;58.96;99840.91;4313315;33;34895;-85
2023/05/19 07:01:39;;;;;;;9.05;5.85;;;;;;;18.96;59.78;99846.03;4316774;33;35091;-87
2023/05/19 07:04:06;;;;;;;9.00;5.12;;;;;;;19.00;58.34;99846.00;4316847;33;34176;-85
2023/05/19 07:06:34;;;;;;;11.55;5.22;;;;;;;19.25;58.73;99842.22;4316070;33;33611;-87
2023/05/19 07:09:04;;;;;;;8.00;4.60;;;;;;;19.33;57.84;99837.72;4302340;33;34035;-84
2023/05/19 07:11:32;;;;;;;8.40;5.05;;;;;;;19.67;56.00;99832.06;4315865;33;34175;-85
2023/05/19 07:13:59;;;;;;;9.20;5.10;;;;;;;19.66;58.05;99827.69;4316041;33;34233;-82
2023/05/19 07:16:27;;;;;;;12.77;5.22;;;;;;;18.87;59.28;99840.87;4315536;33;33809;-85
2023/05/19 07:18:55;;;;;;;10.52;6.22;;;;;;;18.64;60.17;99838.44;4315784;33;33868;-85
2023/05/19 07:21:23;;;;;;;8.38;5.07;;;;;;;18.52;59.70;99840.28;4315878;33;34142;-86
2023/05/19 07:23:50;;;;;;;7.10;4.68;;;;;;;19.08;58.99;99828.38;4315657;33;34256;-85
2023/05/19 07:26:18;;;;;;;6.25;4.18;;;;;;;19.22;58.62;99828.25;4302356;33;33525;-86
2023/05/19 07:28:45;;;;;;;7.20;4.45;;;;;;;19.07;60.57;99837.16;4316937;33;34073;-84
2023/05/19 07:31:13;;;;;;;7.10;4.72;;;;;;;19.10;59.00;99829.25;4301954;33;34158;-80
2023/05/19 07:33:40;;;;;;;10.32;4.97;;;;;;;19.14;59.44;99830.97;4317882;33;34641;-82
2023/05/19 07:36:08;;;;;;;7.28;4.75;;;;;;;19.28;58.61;99826.41;4315524;33;82762;-81
2023/05/19 07:38:36;;;;;;;7.87;4.40;;;;;;;18.41;62.17;99837.75;4316564;33;32925;-84
2023/05/19 07:41:03;;;;;;;10.00;5.28;;;;;;;17.79;64.23;99832.09;4314614;33;33788;-85
2023/05/19 07:43:31;;;;;;;8.68;4.62;;;;;;;18.40;63.06;99836.88;4304481;33;32625;-80
2023/05/19 07:45:59;;;;;;;6.97;4.72;;;;;;;18.28;62.40;99831.75;4292384;33;32591;-82
2023/05/19 07:48:26;;;;;;;8.55;5.15;;;;;;;18.84;61.16;99829.53;4316370;33;34447;-83
2023/05/19 07:50:54;;;;;;;9.20;4.40;;;;;;;18.71;62.28;99831.38;4317441;33;33606;-81
2023/05/19 07:53:25;;;;;;;11.43;5.90;;;;;;;19.30;60.97;99834.28;4316959;33;34120;-83
2023/05/19 07:55:53;;;;;;;10.25;5.47;;;;;;;19.05;60.57;99833.66;4317920;33;33752;-85
2023/05/19 07:58:22;;;;;;;7.90;5.30;;;;;;;18.91;61.92;99833.84;4317653;33;33821;-85
2023/05/19 08:00:50;;;;;;;9.30;5.40;;;;;;;19.17;59.38;99823.91;4317186;33;35001;-85
2023/05/19 08:03:18;;;;;;;10.65;5.07;;;;;;;18.92;61.33;99820.66;4304620;33;34024;-82
2023/05/19 08:05:45;;;;;;;12.73;5.40;;;;;;;19.23;58.68;99817.69;4317865;33;33461;-86
2023/05/19 08:08:15;;;;;;;7.18;4.85;;;;;;;19.07;58.52;99813.50;4317302;33;33697;-86
2023/05/19 08:10:43;;;;;;;15.13;5.70;;;;;;;19.25;58.51;99818.56;4304914;33;34298;-86
2023/05/19 08:13:11;;;;;;;8.57;5.25;;;;;;;18.91;60.72;99818.94;4318330;33;33931;-86
2023/05/19 08:15:38;;;;;;;7.95;4.82;;;;;;;19.04;60.68;99817.03;4304609;33;33786;-86
2023/05/19 08:18:06;;;;;;;9.38;4.43;;;;;;;19.59;59.01;99812.88;4317987;33;34503;-86
2023/05/19 08:20:33;;;;;;;8.05;4.35;;;;;;;19.36;59.22;99811.41;4304919;33;33428;-85
2023/05/19 08:23:01;;;;;;;7.15;3.80;;;;;;;19.64;57.48;99801.41;4317794;33;33927;-85
2023/05/19 08:25:29;;;;;;;8.52;4.37;;;;;;;19.15;58.37;99815.16;4304825;33;34117;-86
2023/05/19 08:27:56;;;;;;;8.02;4.15;;;;;;;19.29;57.79;99814.12;4318132;33;35020;-87
2023/05/19 08:30:24;;;;;;;7.95;5.18;;;;;;;19.58;57.45;99819.00;4317804;33;33739;-87
2023/05/19 08:48:58;;;;;;;9.65;4.20;;;;;;;20.87;54.01;99800.31;4293860;33;32549;-94
2023/05/19 08:52:22;;;;;;;6.85;4.60;;;;;;;21.03;53.69;99810.53;4308540;33;34334;-94
2023/05/19 08:54:53;;;;;;;6.97;4.75;;;;;;;20.80;53.11;99801.31;4302605;33;33808;-96
2023/05/19 08:57:22;;;;;;;6.93;4.10;;;;;;;20.45;54.20;99806.28;4289807;33;34284;-94
2023/05/19 08:59:50;;;;;;;6.12;4.20;;;;;;;20.10;56.23;99813.00;4302349;33;34209;-96
2023/05/19 09:02:18;;;;;;;9.82;5.57;;;;;;;19.96;57.74;99807.94;4290475;33;33608;-95
2023/05/19 09:04:46;;;;;;;7.95;4.78;;;;;;;20.33;55.08;99808.25;4301098;33;33812;-94
2023/05/19 09:07:14;;;;;;;7.00;5.12;;;;;;;20.32;53.80;99801.25;4307713;33;33622;-96
2023/05/19 09:09:42;;;;;;;8.18;4.50;;;;;;;20.30;54.32;99797.75;4317665;33;33233;-96
2023/05/19 09:12:10;;;;;;;8.77;4.47;;;;;;;20.27;54.79;99797.81;4317527;33;33283;-94
2023/05/19 09:14:38;;;;;;;7.85;4.25;;;;;;;20.65;53.05;99798.97;4293114;33;34331;-95
2023/05/19 09:17:05;;;;;;;7.20;4.15;;;;;;;20.79;54.23;99801.31;4319280;33;33889;-91
2023/05/19 09:19:33;;;;;;;10.35;4.85;;;;;;;20.89;53.48;99798.50;4303488;33;33308;-94
2023/05/19 09:22:05;;;;;;;7.28;4.62;;;;;;;20.35;54.94;99801.19;4317070;33;34429;-96
2023/05/19 09:24:33;;;;;;;7.35;4.50;;;;;;;20.76;54.47;99802.28;4323263;33;34593;-93
2023/05/19 09:27:01;;;;;;;6.85;4.00;;;;;;;21.03;52.69;99794.72;4302750;33;32880;-93
2023/05/19 09:29:28;;;;;;;8.30;4.45;;;;;;;21.16;54.73;99793.56;4317023;33;33661;-95
2023/05/19 09:32:03;;;;;;;7.75;4.53;;;;;;;21.33;55.65;99799.41;4317221;33;33158;-95
2023/05/19 09:34:31;;;;;;;8.18;4.25;;;;;;;21.19;55.27;99793.50;4317554;33;34157;-95
2023/05/19 09:36:59;;;;;;;6.97;4.80;;;;;;;21.80;52.21;99788.69;4316447;33;34404;-95
2023/05/19 09:39:27;;;;;;;10.10;4.10;;;;;;;22.24;52.20;99786.81;4302979;33;33575;-95
2023/05/19 09:41:58;;;;;;;7.12;4.45;;;;;;;21.80;52.47;99781.66;4279090;33;33506;-94
2023/05/19 09:44:34;;;;;;;7.55;4.47;;;;;;;22.08;51.46;99789.75;4316298;33;34877;-95
2023/05/19 09:47:02;;;;;;;6.30;4.25;;;;;;;21.82;50.92;99782.50;4302838;33;33821;-92
2023/05/19 09:49:31;;;;;;;6.60;4.18;;;;;;;22.13;50.52;99780.87;4316266;33;33590;-95
2023/05/19 09:52:02;;;;;;;8.80;4.78;;;;;;;21.61;52.15;99773.28;4316288;33;33857;-95
2023/05/19 09:54:31;;;;;;;8.10;4.30;;;;;;;22.19;50.58;99775.47;4314966;33;34763;-95
2023/05/19 09:57:02;;;;;;;6.60;4.50;;;;;;;21.66;50.04;99765.25;4315444;33;33356;-95
2023/05/19 09:59:30;;;;;;;6.40;3.95;;;;;;;21.16;53.43;99769.84;4304496;33;33729;-94
2023/05/19 10:02:01;;;;;;;8.75;4.50;;;;;;;21.16;52.45;99758.44;4303807;33;33544;-95
2023/05/19 10:04:30;;;;;;;6.20;3.87;;;;;;;20.73;54.34;99768.06;4319299;33;34708;-93
2023/05/19 10:07:04;;;;;;;6.40;4.05;;;;;;;21.19;54.75;99756.59;4305497;33;32480;-95
2023/05/19 10:09:32;;;;;;;6.68;4.40;;;;;;;21.47;53.58;99756.87;4316333;33;34364;-92
2023/05/19 10:14:35;;;;;;;6.55;4.40;;;;;;;21.02;54.81;99761.34;4303523;33;33547;-93
2023/05/19 10:17:03;;;;;;;7.78;4.10;;;;;;;21.73;54.98;99758.94;4316555;33;34118;-95
2023/05/19 10:19:31;;;;;;;8.27;4.45;;;;;;;21.96;52.42;99760.16;4302808;33;33879;-93
2023/05/19 10:21:59;;;;;;;6.50;4.18;;;;;;;21.99;51.95;99757.44;4291014;33;34500;-94
2023/05/19 10:24:26;;;;;;;5.85;3.70;;;;;;;21.86;51.71;99759.53;4314946;33;33076;-94
2023/05/19 10:27:00;;;;;;;7.50;3.80;;;;;;;22.19;51.00;99744.63;4302801;33;34015;-94
2023/05/19 10:29:31;;;;;;;6.80;4.07;;;;;;;22.37;50.89;99743.31;4302577;33;32017;-94
2023/05/19 10:32:08;;;;;;;6.47;4.57;;;;;;;22.25;53.06;99749.78;4315844;33;33478;-93
2023/05/19 10:35:00;;;;;;;7.60;3.65;;;;;;;22.12;53.83;99737.75;4278925;33;34449;-94
2023/05/19 10:38:06;;;;;;;7.32;3.92;;;;;;;22.71;50.07;99748.56;4302655;33;34988;-94
2023/05/19 10:40:56;;;;;;;5.15;3.50;;;;;;;22.53;50.29;99743.75;4292309;33;33902;-95
2023/05/19 10:43:38;;;;;;;6.43;4.05;;;;;;;22.38;50.69;99742.37;4305359;33;33253;-95
2023/05/19 10:46:06;;;;;;;5.70;3.95;;;;;;;22.56;49.84;99733.13;4291448;33;33206;-96
2023/05/19 10:48:36;;;;;;;6.82;4.47;;;;;;;22.02;51.31;99738.91;4315384;33;33752;-93
2023/05/19 10:51:10;;;;;;;5.18;3.60;;;;;;;22.26;49.91;99734.78;4299304;33;33551;-94
2023/05/19 10:53:45;;;;;;;5.82;3.78;;;;;;;22.24;51.14;99732.22;4295114;33;34719;-92
2023/05/19 10:56:32;;;;;;;9.13;4.97;;;;;;;22.47;49.39;99736.03;4317355;33;34655;-92
2023/05/19 10:59:02;;;;;;;7.10;4.62;;;;;;;22.46;50.58;99735.13;4291764;33;32922;-96
2023/05/19 11:01:34;;;;;;;10.57;5.10;;;;;;;22.44;47.53;99728.16;4302974;33;34189;-95
2023/05/19 11:04:07;;;;;;;8.95;5.43;;;;;;;22.37;48.04;99724.81;4306817;33;33350;-96
2023/05/19 11:06:36;;;;;;;9.05;5.68;;;;;;;21.82;49.47;99729.69;4320412;33;34087;-96
2023/05/19 11:09:07;;;;;;;9.25;5.68;;;;;;;21.29;49.64;99718.59;4307083;33;33324;-93
2023/05/19 11:11:46;;;;;;;11.20;5.95;;;;;;;22.00;48.49;99719.56;4320383;33;34055;-93
2023/05/19 11:14:17;;;;;;;9.27;6.12;;;;;;;22.25;47.82;99718.09;4306993;33;33809;-96
2023/05/19 11:16:49;;;;;;;13.05;6.85;;;;;;;21.94;47.73;99722.38;4306844;33;33168;-94
2023/05/19 11:19:29;;;;;;;10.18;6.22;;;;;;;22.02;47.19;99718.66;4306870;33;33692;-95
2023/05/19 11:22:06;;;;;;;11.32;6.20;;;;;;;22.06;47.03;99716.78;4307053;33;33370;-96
2023/05/19 11:24:48;;;;;;;8.35;6.03;;;;;;;22.01;48.63;99711.63;4307504;33;33840;-96
2023/05/19 11:27:32;;;;;;;11.45;6.03;;;;;;;22.12;50.81;99719.25;4320121;33;34088;-96
2023/05/19 11:30:07;;;;;;;8.40;5.85;;;;;;;22.21;50.10;99718.22;4306684;33;34907;-96
2023/05/19 11:32:38;;;;;;;11.17;6.70;;;;;;;22.03;48.85;99714.22;4308273;33;33615;-94
2023/05/19 11:35:08;;;;;;;9.45;6.20;;;;;;;22.03;49.93;99716.88;4324391;33;32466;-95
2023/05/19 11:37:36;;;;;;;8.15;6.15;;;;;;;22.19;50.55;99717.38;4323330;33;34094;-96
2023/05/19 11:40:07;;;;;;;9.15;5.85;;;;;;;22.51;52.48;99719.16;4313247;33;32309;-96
2023/05/19 11:42:35;;;;;;;10.20;5.70;;;;;;;22.95;49.56;99717.06;4320590;33;32543;-96
2023/05/19 11:45:04;;;;;;;7.25;5.18;;;;;;;23.18;46.18;99711.09;4314507;33;33506;-96
2023/05/19 11:47:32;;;;;;;9.10;6.12;;;;;;;23.43;46.38;99713.88;4320181;33;34032;-92
2023/05/19 11:50:42;;;;;;;8.23;5.93;;;;;;;23.30;45.47;99711.63;4325378;33;34616;-93
2023/05/19 11:53:18;;;;;;;10.50;5.87;;;;;;;22.78;46.34;99717.53;4328737;33;33896;-96
2023/05/19 11:55:47;;;;;;;9.43;6.18;;;;;;;23.05;48.29;99721.19;4321533;33;33922;-95
2023/05/19 11:58:24;;;;;;;9.73;5.20;;;;;;;22.88;50.76;99719.03;4306475;33;34424;-96
2023/05/19 12:00:52;;;;;;;9.98;5.45;;;;;;;23.13;45.36;99715.69;4320553;33;34758;-96
2023/05/19 12:03:26;;;;;;;11.10;6.68;;;;;;;23.53;45.65;99707.41;4307584;33;33315;-96